Time,TemperatureF,DewpointF,PressureIn,WindDirection,WindDirectionDegrees,WindSpeedMPH,WindSpeedGustMPH,Humidity,HourlyPrecipIn,Conditions,Clouds,dailyrainin,SoftwareType,DateUTC
2013-03-24 00:04:00,36.5,25.0,29.75,NNW,342,1.0,12.0,63,0.00,,,0.00,weatherlink.com 1.10,2013-03-24 04:04:00,
2013-03-24 00:19:00,36.4,25.0,29.75,NW,313,0.0,9.0,63,0.00,,,0.00,weatherlink.com 1.10,2013-03-24 04:19:00,
2013-03-24 00:34:00,36.4,25.0,29.75,NE,46,2.0,8.0,63,0.00,,,0.00,weatherlink.com 1.10,2013-03-24 04:34:00,
2013-03-24 00:49:00,36.4,25.0,29.76,WNW,303,5.0,9.0,63,0.00,,,0.00,weatherlink.com 1.10,2013-03-24 04:49:00,
2013-03-24 01:04:00,36.3,25.0,29.75,North,359,4.0,4.0,64,0.00,,,0.00,weatherlink.com 1.10,2013-03-24 05:04:00,
2013-03-24 01:19:00,36.4,25.0,29.75,NNW,346,3.0,13.0,64,0.00,,,0.00,weatherlink.com 1.10,2013-03-24 05:19:00,
2013-03-24 01:34:00,36.4,25.0,29.75,NW,316,6.0,12.0,64,0.00,,,0.00,weatherlink.com 1.10,2013-03-24 05:34:00,
2013-03-24 01:49:00,36.5,25.0,29.76,NE,54,8.0,13.0,64,0.00,,,0.00,weatherlink.com 1.10,2013-03-24 05:49:00,
2013-03-24 02:04:00,36.5,25.0,29.76,WSW,258,2.0,10.0,64,0.00,,,0.00,weatherlink.com 1.10,2013-03-24 06:04:00,
2013-03-24 02:19:00,36.4,25.0,29.76,ESE,116,3.0,5.0,64,0.00,,,0.00,weatherlink.com 1.10,2013-03-24 06:19:00,
2013-03-24 02:34:00,36.4,26.0,29.75,WNW,285,1.0,11.0,65,0.00,,,0.00,weatherlink.com 1.10,2013-03-24 06:34:00,
2013-03-24 02:49:00,36.3,25.0,29.75,NE,46,4.0,11.0,65,0.00,,,0.00,weatherlink.com 1.10,2013-03-24 06:49:00,
2013-03-24 03:04:00,36.1,26.0,29.75,ENE,65,1.0,7.0,66,0.00,,,0.00,weatherlink.com 1.10,2013-03-24 07:04:00,
2013-03-24 03:19:00,36.1,25.0,29.75,WSW,242,1.0,6.0,65,0.00,,,0.00,weatherlink.com 1.10,2013-03-24 07:19:00,
2013-03-24 03:34:00,35.8,25.0,29.75,West,274,2.0,5.0,66,0.00,,,0.00,weatherlink.com 1.10,2013-03-24 07:34:00,
2013-03-24 03:49:00,35.2,25.0,29.75,NW,308,5.0,5.0,67,0.00,,,0.00,weatherlink.com 1.10,2013-03-24 07:49:00,
2013-03-24 04:04:00,34.4,26.0,29.74,NNW,338,0.0,5.0,70,0.00,,,0.00,weatherlink.com 1.10,2013-03-24 08:04:00,
2013-03-24 04:19:00,33.6,25.0,29.75,WNW,295,4.0,8.0,72,0.00,,,0.00,weatherlink.com 1.10,2013-03-24 08:19:00,
2013-03-24 04:34:00,33.0,26.0,29.75,WNW,291,1.0,4.0,74,0.00,,,0.00,weatherlink.com 1.10,2013-03-24 08:34:00,
2013-03-24 04:49:00,33.3,26.0,29.75,NW,310,0.0,2.0,73,0.00,,,0.00,weatherlink.com 1.10,2013-03-24 08:49:00,
2013-03-24 05:04:00,32.8,26.0,29.75,West,276,1.0,6.0,75,0.00,,,0.00,weatherlink.com 1.10,2013-03-24 09:04:00,
2013-03-24 05:19:00,32.4,26.0,29.76,West,276,0.0,2.0,76,0.00,,,0.00,weatherlink.com 1.10,2013-03-24 09:19:00,
2013-03-24 05:34:00,32.2,26.0,29.75,West,276,1.0,2.0,77,0.00,,,0.00,weatherlink.com 1.10,2013-03-24 09:34:00,
2013-03-24 05:49:00,31.7,25.0,29.75,West,276,2.0,3.0,77,0.00,,,0.00,weatherlink.com 1.10,2013-03-24 09:49:00,
2013-03-24 06:04:00,31.3,26.0,29.76,West,276,3.0,3.0,79,0.00,,,0.00,weatherlink.com 1.10,2013-03-24 10:04:00,
2013-03-24 06:19:00,31.3,25.0,29.77,WSW,249,2.0,3.0,78,0.00,,,0.00,weatherlink.com 1.10,2013-03-24 10:19:00,
2013-03-24 06:35:00,31.3,25.0,29.77,WSW,249,1.0,3.0,78,0.00,,,0.00,weatherlink.com 1.10,2013-03-24 10:35:00,
2013-03-24 06:50:00,32.1,26.0,29.77,WSW,249,1.0,4.0,78,0.00,,,0.00,weatherlink.com 1.10,2013-03-24 10:50:00,
2013-03-24 07:05:00,32.7,27.0,29.79,WSW,249,3.0,4.0,78,0.00,,,0.00,weatherlink.com 1.10,2013-03-24 11:05:00,
2013-03-24 07:20:00,34.9,27.0,29.81,West,272,3.0,6.0,74,0.00,,,0.00,weatherlink.com 1.10,2013-03-24 11:20:00,
2013-03-24 07:35:00,35.8,27.0,29.81,NNW,340,2.0,8.0,70,0.00,,,0.00,weatherlink.com 1.10,2013-03-24 11:35:00,
2013-03-24 07:50:00,36.1,27.0,29.81,East,87,2.0,10.0,70,0.00,,,0.00,weatherlink.com 1.10,2013-03-24 11:50:00,
2013-03-24 08:05:00,36.1,27.0,29.81,North,2,7.0,10.0,70,0.00,,,0.00,weatherlink.com 1.10,2013-03-24 12:05:00,
2013-03-24 08:20:00,37.5,28.0,29.82,East,101,3.0,11.0,68,0.00,,,0.00,weatherlink.com 1.10,2013-03-24 12:20:00,
2013-03-24 08:35:00,37.8,27.0,29.82,NNW,347,6.0,12.0,66,0.00,,,0.00,weatherlink.com 1.10,2013-03-24 12:35:00,
2013-03-24 08:50:00,37.8,27.0,29.80,NNE,13,2.0,26.0,66,0.00,,,0.00,weatherlink.com 1.10,2013-03-24 12:50:00,
2013-03-24 09:05:00,38.2,27.0,29.80,NW,322,13.0,17.0,65,0.00,,,0.00,weatherlink.com 1.10,2013-03-24 13:05:00,
2013-03-24 09:20:00,38.7,27.0,29.80,NE,36,12.0,15.0,64,0.00,,,0.00,weatherlink.com 1.10,2013-03-24 13:20:00,
2013-03-24 09:35:00,39.1,27.0,29.80,North,349,6.0,23.0,61,0.00,,,0.00,weatherlink.com 1.10,2013-03-24 13:35:00,
2013-03-24 09:50:00,39.2,26.0,29.79,NNW,342,13.0,22.0,60,0.00,,,0.00,weatherlink.com 1.10,2013-03-24 13:50:00,
2013-03-24 10:05:00,39.5,26.0,29.79,NNE,25,6.0,21.0,60,0.00,,,0.00,weatherlink.com 1.10,2013-03-24 14:05:00,
2013-03-24 10:20:00,40.3,26.0,29.79,NNE,14,7.0,21.0,57,0.00,,,0.00,weatherlink.com 1.10,2013-03-24 14:20:00,
2013-03-24 10:35:00,40.0,26.0,29.78,NE,40,8.0,24.0,57,0.00,,,0.00,weatherlink.com 1.10,2013-03-24 14:35:00,
2013-03-24 10:50:00,40.6,26.0,29.78,North,356,19.0,27.0,56,0.00,,,0.00,weatherlink.com 1.10,2013-03-24 14:50:00,
2013-03-24 11:05:00,41.3,26.0,29.78,NW,319,8.0,20.0,55,0.00,,,0.00,weatherlink.com 1.10,2013-03-24 15:05:00,
2013-03-24 11:20:00,41.2,26.0,29.79,NNW,342,5.0,18.0,55,0.00,,,0.00,weatherlink.com 1.10,2013-03-24 15:20:00,
2013-03-24 11:35:00,41.8,26.0,29.79,NW,317,8.0,23.0,54,0.00,,,0.00,weatherlink.com 1.10,2013-03-24 15:35:00,
2013-03-24 11:50:00,41.1,26.0,29.78,NNE,29,19.0,22.0,55,0.00,,,0.00,weatherlink.com 1.10,2013-03-24 15:50:00,
2013-03-24 12:05:00,41.7,26.0,29.79,North,3,5.0,16.0,54,0.00,,,0.00,weatherlink.com 1.10,2013-03-24 16:05:00,
2013-03-24 12:20:00,42.4,27.0,29.78,West,268,8.0,17.0,54,0.00,,,0.00,weatherlink.com 1.10,2013-03-24 16:20:00,
2013-03-24 12:35:00,42.1,26.0,29.79,NNW,330,9.0,21.0,53,0.00,,,0.00,weatherlink.com 1.10,2013-03-24 16:35:00,
2013-03-24 12:50:00,42.5,26.0,29.79,North,353,6.0,19.0,53,0.00,,,0.00,weatherlink.com 1.10,2013-03-24 16:50:00,
2013-03-24 13:05:00,42.8,26.0,29.79,West,281,5.0,22.0,52,0.00,,,0.00,weatherlink.com 1.10,2013-03-24 17:05:00,
2013-03-24 13:20:00,43.0,26.0,29.78,North,360,14.0,18.0,52,0.00,,,0.00,weatherlink.com 1.10,2013-03-24 17:20:00,
2013-03-24 13:35:00,43.5,27.0,29.77,SE,135,5.0,14.0,52,0.00,,,0.00,weatherlink.com 1.10,2013-03-24 17:35:00,
2013-03-24 13:50:00,43.4,26.0,29.77,WNW,290,8.0,17.0,51,0.00,,,0.00,weatherlink.com 1.10,2013-03-24 17:50:00,
2013-03-24 14:05:00,42.4,26.0,29.76,West,278,1.0,25.0,52,0.00,,,0.00,weatherlink.com 1.10,2013-03-24 18:05:00,
2013-03-24 14:20:00,43.4,26.0,29.77,NW,310,7.0,15.0,50,0.00,,,0.00,weatherlink.com 1.10,2013-03-24 18:20:00,
2013-03-24 14:35:00,44.1,26.0,29.77,NNE,33,8.0,15.0,49,0.00,,,0.00,weatherlink.com 1.10,2013-03-24 18:35:00,
2013-03-24 14:50:00,44.5,25.0,29.77,WNW,286,3.0,15.0,47,0.00,,,0.00,weatherlink.com 1.10,2013-03-24 18:50:00,
2013-03-24 15:05:00,45.2,26.0,29.77,North,355,3.0,12.0,47,0.00,,,0.00,weatherlink.com 1.10,2013-03-24 19:05:00,
2013-03-24 15:20:00,44.1,25.0,29.76,NE,48,9.0,17.0,48,0.00,,,0.00,weatherlink.com 1.10,2013-03-24 19:20:00,
2013-03-24 15:35:00,43.7,25.0,29.75,NNE,22,7.0,16.0,48,0.00,,,0.00,weatherlink.com 1.10,2013-03-24 19:35:00,
2013-03-24 15:50:00,43.8,26.0,29.75,North,356,5.0,18.0,49,0.00,,,0.00,weatherlink.com 1.10,2013-03-24 19:50:00,
2013-03-24 16:05:00,44.6,25.0,29.74,NNW,341,2.0,13.0,47,0.00,,,0.00,weatherlink.com 1.10,2013-03-24 20:05:00,
2013-03-24 16:20:00,44.9,26.0,29.73,NE,47,9.0,17.0,47,0.00,,,0.00,weatherlink.com 1.10,2013-03-24 20:20:00,
2013-03-24 16:35:00,44.6,26.0,29.73,NE,42,9.0,15.0,49,0.00,,,0.00,weatherlink.com 1.10,2013-03-24 20:35:00,
2013-03-24 16:50:00,44.6,26.0,29.73,NE,53,11.0,15.0,48,0.00,,,0.00,weatherlink.com 1.10,2013-03-24 20:50:00,
2013-03-24 17:05:00,45.0,26.0,29.73,NNE,25,3.0,14.0,48,0.00,,,0.00,weatherlink.com 1.10,2013-03-24 21:05:00,
2013-03-24 17:20:00,45.0,26.0,29.73,NE,40,5.0,12.0,47,0.00,,,0.00,weatherlink.com 1.10,2013-03-24 21:20:00,
2013-03-24 17:36:00,45.0,27.0,29.74,North,4,4.0,10.0,49,0.00,,,0.00,weatherlink.com 1.10,2013-03-24 21:36:00,
2013-03-24 17:51:00,44.8,26.0,29.74,NNE,29,6.0,10.0,48,0.00,,,0.00,weatherlink.com 1.10,2013-03-24 21:51:00,
2013-03-24 18:06:00,44.1,26.0,29.74,NE,37,7.0,9.0,50,0.00,,,0.00,weatherlink.com 1.10,2013-03-24 22:06:00,
2013-03-24 18:21:00,43.4,26.0,29.74,NE,41,4.0,10.0,51,0.00,,,0.00,weatherlink.com 1.10,2013-03-24 22:21:00,
2013-03-24 18:36:00,43.0,26.0,29.75,NNE,33,5.0,9.0,51,0.00,,,0.00,weatherlink.com 1.10,2013-03-24 22:36:00,
2013-03-24 18:51:00,42.5,26.0,29.75,NE,45,2.0,9.0,53,0.00,,,0.00,weatherlink.com 1.10,2013-03-24 22:51:00,
2013-03-24 19:06:00,42.2,26.0,29.76,NNE,19,3.0,8.0,54,0.00,,,0.00,weatherlink.com 1.10,2013-03-24 23:06:00,
2013-03-24 19:21:00,41.2,27.0,29.76,NNE,22,3.0,7.0,57,0.00,,,0.00,weatherlink.com 1.10,2013-03-24 23:21:00,
2013-03-24 19:36:00,40.1,27.0,29.77,NE,50,1.0,5.0,59,0.00,,,0.00,weatherlink.com 1.10,2013-03-24 23:36:00,
2013-03-24 19:51:00,39.9,26.0,29.78,NNE,33,3.0,8.0,58,0.00,,,0.00,weatherlink.com 1.10,2013-03-24 23:51:00,
2013-03-24 20:06:00,38.9,26.0,29.78,NE,56,0.0,5.0,60,0.00,,,0.00,weatherlink.com 1.10,2013-03-25 00:06:00,
2013-03-24 20:21:00,38.0,26.0,29.78,NE,56,0.0,2.0,63,0.00,,,0.00,weatherlink.com 1.10,2013-03-25 00:21:00,
2013-03-24 20:36:00,37.0,28.0,29.78,NE,56,0.0,2.0,69,0.00,,,0.00,weatherlink.com 1.10,2013-03-25 00:36:00,
2013-03-24 21:06:00,35.8,27.0,29.78,NE,56,0.0,4.0,69,0.00,,,0.00,weatherlink.com 1.10,2013-03-25 01:06:00,
2013-03-24 21:36:00,34.1,27.0,29.79,NE,56,2.0,3.0,74,0.00,,,0.00,weatherlink.com 1.10,2013-03-25 01:36:00,
2013-03-24 22:06:00,32.2,26.0,29.79,NE,56,0.0,2.0,79,0.00,,,0.00,weatherlink.com 1.10,2013-03-25 02:06:00,
2013-03-24 22:36:00,31.9,26.0,29.78,NE,56,0.0,2.0,79,0.00,,,0.00,weatherlink.com 1.10,2013-03-25 02:36:00,
2013-03-24 23:06:00,31.0,26.0,29.77,NE,56,0.0,1.0,81,0.00,,,0.00,weatherlink.com 1.10,2013-03-25 03:06:00,
2013-03-24 23:51:00,29.7,25.0,29.77,NE,56,2.0,3.0,84,0.00,,,0.00,weatherlink.com 1.10,2013-03-25 03:51:00,